Time;durP1;ratioP1;P1;durP2;ratioP2;P2;SDS_P1;SDS_P2;PMS_P1;PMS_P2;Temp;Humidity;BMP_temperature;BMP_pressure;BME280_temperature;BME280_humidity;BME280_pressure;Samples;Min_cycle;Max_cycle;Signal;HPM_P1;HPM_P2
2023/03/21 00:00:41;;;;;;;11.68;7.50;;;9.80;54.90;;;;;;5057483;28;20025;-77
2023/03/21 00:03:07;;;;;;;9.90;7.55;;;9.80;55.00;;;;;;5074886;28;20028;-78
2023/03/21 00:05:33;;;;;;;11.57;8.45;;;9.80;55.10;;;;;;5074794;28;20470;-78
2023/03/21 00:07:59;;;;;;;10.18;7.35;;;9.80;55.20;;;;;;5057296;28;20027;-78
2023/03/21 00:10:24;;;;;;;10.82;7.35;;;9.80;55.30;;;;;;5075355;28;20111;-77
2023/03/21 00:12:57;;;;;;;9.95;6.97;;;9.70;55.40;;;;;;5075410;28;20078;-77
2023/03/21 00:15:26;;;;;;;10.35;7.13;;;9.70;55.50;;;;;;5075006;28;20020;-77
2023/03/21 00:17:57;;;;;;;8.73;6.50;;;9.70;55.60;;;;;;5056791;28;20112;-78
2023/03/21 00:20:23;;;;;;;10.90;7.53;;;9.70;55.70;;;;;;5075030;28;20016;-78
2023/03/21 00:22:49;;;;;;;9.77;7.47;;;9.70;55.80;;;;;;5074909;28;20355;-78
2023/03/21 00:25:14;;;;;;;10.82;7.30;;;9.70;55.80;;;;;;5075038;28;20035;-77
2023/03/21 00:27:40;;;;;;;10.05;7.13;;;9.70;55.90;;;;;;5074951;28;20036;-77
2023/03/21 00:30:06;;;;;;;11.13;6.68;;;9.70;55.90;;;;;;5074752;28;20484;-77
2023/03/21 00:32:32;;;;;;;9.93;7.13;;;9.70;56.10;;;;;;5074047;28;20485;-78
2023/03/21 00:34:57;;;;;;;10.40;6.68;;;9.70;56.10;;;;;;5086796;28;20079;-77
2023/03/21 00:37:23;;;;;;;10.13;6.85;;;9.70;56.20;;;;;;5093997;28;20035;-77
2023/03/21 00:39:49;;;;;;;9.25;6.80;;;9.70;56.20;;;;;;5094724;28;20366;-77
2023/03/21 00:42:15;;;;;;;8.75;6.60;;;9.70;56.30;;;;;;5094558;28;20024;-77
2023/03/21 00:44:41;;;;;;;8.68;6.40;;;9.70;56.30;;;;;;5076688;28;20057;-77
2023/03/21 00:47:08;;;;;;;8.57;6.47;;;9.70;56.40;;;;;;5094485;28;20125;-77
2023/03/21 00:49:36;;;;;;;9.90;6.35;;;9.60;56.40;;;;;;5094732;28;20024;-76
2023/03/21 00:52:05;;;;;;;9.15;6.40;;;9.70;56.60;;;;;;5077098;28;20024;-77
2023/03/21 00:54:32;;;;;;;8.35;6.47;;;9.60;56.50;;;;;;5076561;28;20034;-77
2023/03/21 00:56:57;;;;;;;9.23;6.63;;;9.60;56.60;;;;;;5094712;28;20057;-77
2023/03/21 00:59:23;;;;;;;8.25;6.38;;;9.60;56.70;;;;;;5094324;28;20020;-77
2023/03/21 01:01:49;;;;;;;7.82;5.97;;;9.60;56.70;;;;;;5094210;28;20023;-77
2023/03/21 01:04:15;;;;;;;7.63;5.65;;;9.60;56.80;;;;;;5094311;28;20016;-77
2023/03/21 01:06:42;;;;;;;8.65;6.32;;;9.60;56.90;;;;;;5076121;28;20020;-77
2023/03/21 01:09:17;;;;;;;9.40;6.45;;;9.60;57.00;;;;;;5076226;28;20500;-77
2023/03/21 01:11:43;;;;;;;8.73;6.07;;;9.60;57.10;;;;;;5094640;28;20032;-78
2023/03/21 01:14:09;;;;;;;8.55;6.05;;;9.60;57.10;;;;;;5094040;28;20024;-78
2023/03/21 01:16:35;;;;;;;9.30;6.95;;;9.60;57.20;;;;;;5076764;28;20020;-77
2023/03/21 01:19:03;;;;;;;8.25;6.20;;;9.60;57.30;;;;;;5076000;28;20024;-78
2023/03/21 01:21:30;;;;;;;7.72;6.20;;;9.60;57.30;;;;;;5075998;28;20072;-78
2023/03/21 01:23:56;;;;;;;10.13;6.65;;;9.60;57.40;;;;;;5094031;28;20027;-78
2023/03/21 01:26:22;;;;;;;8.68;6.68;;;9.60;57.40;;;;;;5093928;28;20040;-77
2023/03/21 01:28:47;;;;;;;8.73;6.18;;;9.60;57.40;;;;;;5093762;28;20464;-77
2023/03/21 01:31:15;;;;;;;7.88;6.00;;;9.60;57.60;;;;;;5094039;28;20378;-77
2023/03/21 01:33:42;;;;;;;8.18;5.85;;;9.50;57.50;;;;;;5075774;28;20035;-77
2023/03/21 01:36:13;;;;;;;9.27;6.55;;;9.50;57.60;;;;;;5075776;28;20036;-78
2023/03/21 01:38:40;;;;;;;8.75;5.95;;;9.50;57.60;;;;;;5093906;28;20020;-78
2023/03/21 01:41:06;;;;;;;9.85;6.65;;;9.60;57.70;;;;;;5093930;28;20032;-78
2023/03/21 01:43:35;;;;;;;8.55;6.38;;;9.50;57.60;;;;;;5093888;28;20032;-78
2023/03/21 01:46:07;;;;;;;8.90;6.20;;;9.50;57.70;;;;;;5093513;28;20087;-78
2023/03/21 01:48:34;;;;;;;8.25;5.80;;;9.50;57.70;;;;;;5095843;28;20085;-78
2023/03/21 01:51:00;;;;;;;9.45;6.22;;;9.50;57.70;;;;;;5100544;28;20038;-78
2023/03/21 01:53:29;;;;;;;10.07;6.72;;;9.50;57.80;;;;;;5082177;28;20028;-78
2023/03/21 01:56:05;;;;;;;9.57;6.35;;;9.50;57.80;;;;;;5100477;28;20035;-78
2023/03/21 01:58:32;;;;;;;11.18;7.50;;;9.50;58.00;;;;;;5082203;28;20036;-78
2023/03/21 02:00:58;;;;;;;10.43;6.80;;;9.50;58.00;;;;;;5100398;28;20024;-78
2023/03/21 02:03:28;;;;;;;9.32;6.55;;;9.50;58.00;;;;;;5100856;28;20138;-78
2023/03/21 02:06:14;;;;;;;9.40;6.60;;;9.50;58.00;;;;;;5083352;28;20039;-78
2023/03/21 02:08:40;;;;;;;8.55;6.65;;;9.50;58.30;;;;;;5082899;28;20373;-78
2023/03/21 02:11:08;;;;;;;10.32;6.70;;;9.50;58.10;;;;;;5100382;28;20366;-78
2023/03/21 02:13:35;;;;;;;10.32;7.30;;;9.50;58.10;;;;;;5100289;28;20032;-78
2023/03/21 02:16:11;;;;;;;10.73;7.47;;;9.50;58.30;;;;;;5082227;28;20028;-78
2023/03/21 02:18:59;;;;;;;10.13;7.07;;;9.50;58.30;;;;;;5100344;28;20043;-78
2023/03/21 02:21:37;;;;;;;10.63;7.25;;;9.50;58.50;;;;;;5100584;28;20062;-78
2023/03/21 02:24:14;;;;;;;9.50;7.10;;;9.40;58.40;;;;;;5082249;28;20025;-78
2023/03/21 02:27:09;;;;;;;12.15;7.50;;;9.50;58.40;;;;;;5082159;28;20036;-78
2023/03/21 02:29:44;;;;;;;9.77;6.78;;;9.40;58.50;;;;;;5082770;28;20072;-79
2023/03/21 02:32:43;;;;;;;9.73;7.03;;;9.40;58.50;;;;;;5081944;28;20032;-78
2023/03/21 02:35:27;;;;;;;9.45;6.32;;;9.40;58.60;;;;;;5100251;28;20052;-79
2023/03/21 02:38:01;;;;;;;10.52;7.03;;;9.40;58.50;;;;;;5082158;28;20020;-79
2023/03/21 02:40:30;;;;;;;;;;;9.40;58.60;;;;;;5100713;28;20166;-78
2023/03/21 02:43:04;;;;;;;8.82;6.78;;;9.30;59.10;;;;;;5082194;28;19982;-79
2023/03/21 02:45:49;;;;;;;8.63;6.20;;;9.30;58.50;;;;;;5100121;28;20123;-78
2023/03/21 02:48:23;;;;;;;11.02;6.95;;;9.40;58.70;;;;;;5081972;28;20081;-78
2023/03/21 02:50:52;;;;;;;8.88;6.90;;;9.30;58.60;;;;;;5100049;28;20460;-78
2023/03/21 02:53:21;;;;;;;9.18;6.57;;;9.30;58.70;;;;;;5081859;28;20027;-78
2023/03/21 02:55:48;;;;;;;10.27;6.80;;;9.30;58.90;;;;;;5081608;28;20036;-78
2023/03/21 02:58:20;;;;;;;10.43;6.78;;;9.30;58.90;;;;;;5100043;28;20024;-78
2023/03/21 03:00:47;;;;;;;9.88;7.03;;;9.30;58.90;;;;;;5096940;28;20069;-78
2023/03/21 03:03:13;;;;;;;8.90;6.28;;;9.30;59.00;;;;;;5096701;28;20032;-78
2023/03/21 03:05:47;;;;;;;8.38;6.45;;;9.30;59.00;;;;;;5096658;28;20089;-78
2023/03/21 03:08:31;;;;;;;10.05;7.15;;;9.30;59.10;;;;;;5096529;28;20458;-78
2023/03/21 03:11:05;;;;;;;9.07;6.53;;;9.30;59.10;;;;;;5078243;28;20032;-78
2023/03/21 03:13:56;;;;;;;;;;;9.30;59.20;;;;;;5079558;28;20024;-77
2023/03/21 03:16:44;;;;;;;9.90;7.15;;;9.30;59.70;;;;;;5078513;28;19986;-78
2023/03/21 03:19:24;;;;;;;9.82;7.00;;;9.30;59.20;;;;;;5096139;28;20488;-77
2023/03/21 03:22:06;;;;;;;9.95;7.18;;;9.30;59.10;;;;;;5096945;28;20016;-77
2023/03/21 03:24:43;;;;;;;13.57;6.93;;;9.30;59.20;;;;;;5096205;28;20493;-78
2023/03/21 03:27:32;;;;;;;10.82;7.13;;;9.30;59.30;;;;;;5078235;28;20421;-78
2023/03/21 03:30:00;;;;;;;9.82;7.03;;;9.30;59.40;;;;;;5096814;28;20227;-77
2023/03/21 03:32:34;;;;;;;11.23;7.60;;;9.30;59.30;;;;;;5096444;28;20028;-78
2023/03/21 03:35:01;;;;;;;10.63;7.23;;;9.30;60.00;;;;;;5077969;28;20056;-78
2023/03/21 03:37:31;;;;;;;8.50;6.40;;;9.30;59.40;;;;;;5077977;28;20031;-78
2023/03/21 03:40:22;;;;;;;10.40;7.38;;;9.30;59.50;;;;;;5077881;28;20027;-78
2023/03/21 03:42:52;;;;;;;10.85;7.45;;;9.30;59.70;;;;;;5096202;28;20028;-77
2023/03/21 03:45:22;;;;;;;10.98;7.32;;;9.30;59.60;;;;;;5077935;28;20093;-78
2023/03/21 03:48:06;;;;;;;11.80;7.55;;;9.30;59.60;;;;;;5077910;28;20035;-78
2023/03/21 03:50:40;;;;;;;10.95;8.07;;;9.20;59.60;;;;;;5077589;28;20024;-77
2023/03/21 03:53:21;;;;;;;9.45;6.45;;;9.20;59.60;;;;;;5095884;28;20424;-77
2023/03/21 03:55:48;;;;;;;11.68;7.25;;;9.30;59.70;;;;;;5077891;28;20127;-78
2023/03/21 03:58:21;;;;;;;8.93;6.88;;;9.30;59.70;;;;;;5077428;28;20028;-78
2023/03/21 04:00:47;;;;;;;9.75;7.43;;;9.30;59.70;;;;;;5077541;28;20050;-78
2023/03/21 04:03:13;;;;;;;9.05;7.07;;;9.30;59.80;;;;;;5095619;28;20366;-78
2023/03/21 04:05:40;;;;;;;8.65;6.72;;;9.30;59.80;;;;;;5077567;28;20028;-78
2023/03/21 04:08:09;;;;;;;10.23;7.43;;;9.30;59.90;;;;;;5077579;28;20032;-77
2023/03/21 04:10:35;;;;;;;9.88;6.72;;;9.30;59.90;;;;;;5077529;28;20032;-78
2023/03/21 04:13:01;;;;;;;9.38;6.65;;;9.30;59.90;;;;;;5095096;28;20117;-78
2023/03/21 04:15:26;;;;;;;9.60;7.45;;;9.30;59.90;;;;;;5095378;28;20031;-78
2023/03/21 04:17:52;;;;;;;10.07;6.80;;;9.30;60.00;;;;;;5077589;28;20115;-78
2023/03/21 04:20:18;;;;;;;9.57;7.40;;;9.30;59.90;;;;;;5095281;28;20174;-78
2023/03/21 04:22:44;;;;;;;9.82;6.95;;;9.30;60.50;;;;;;5077195;28;20024;-78
2023/03/21 04:25:10;;;;;;;11.05;7.85;;;9.30;59.90;;;;;;5095008;28;20028;-78
2023/03/21 04:27:35;;;;;;;10.70;7.22;;;9.30;59.90;;;;;;5095156;28;20077;-79
2023/03/21 04:30:02;;;;;;;10.65;7.53;;;9.40;60.00;;;;;;5076673;28;20032;-78
2023/03/21 04:32:28;;;;;;;10.25;7.68;;;9.40;60.00;;;;;;5094935;28;20028;-78
2023/03/21 04:34:53;;;;;;;10.57;7.45;;;9.40;60.00;;;;;;5076795;28;20058;-78
2023/03/21 04:37:22;;;;;;;9.35;7.55;;;9.40;60.00;;;;;;5094960;28;20028;-78
2023/03/21 04:39:49;;;;;;;12.55;8.05;;;9.50;60.00;;;;;;5094883;28;20028;-78
2023/03/21 04:42:17;;;;;;;12.57;9.02;;;9.50;60.00;;;;;;5060139;28;20089;-78
2023/03/21 04:44:47;;;;;;;11.82;8.23;;;9.50;59.90;;;;;;5094380;28;20488;-78
2023/03/21 04:47:14;;;;;;;12.00;8.25;;;9.50;59.90;;;;;;5076800;28;20069;-78
2023/03/21 04:49:43;;;;;;;12.30;7.70;;;9.50;59.90;;;;;;5076531;28;20024;-78
2023/03/21 04:52:08;;;;;;;11.82;8.30;;;9.50;59.80;;;;;;5094568;28;20024;-77
2023/03/21 04:54:34;;;;;;;10.25;7.57;;;9.60;59.90;;;;;;5076345;28;20119;-78
2023/03/21 04:57:00;;;;;;;12.30;8.75;;;9.60;59.80;;;;;;5094141;28;20059;-78
2023/03/21 04:59:26;;;;;;;10.60;7.97;;;9.60;59.80;;;;;;5109737;28;20030;-78
2023/03/21 05:01:51;;;;;;;10.60;7.85;;;9.70;59.90;;;;;;5114869;28;20027;-79
2023/03/21 05:04:18;;;;;;;9.77;7.78;;;9.70;59.80;;;;;;5096439;28;20019;-79
2023/03/21 05:06:45;;;;;;;11.10;8.25;;;9.70;59.80;;;;;;5096312;28;20385;-79
2023/03/21 05:09:11;;;;;;;12.30;9.52;;;9.70;59.80;;;;;;5096330;28;20024;-80
2023/03/21 05:11:39;;;;;;;11.73;8.25;;;9.80;59.80;;;;;;5114452;28;20043;-78
2023/03/21 05:14:07;;;;;;;12.98;9.05;;;9.70;59.70;;;;;;5114614;28;20427;-77
2023/03/21 05:16:35;;;;;;;12.57;9.27;;;9.80;60.30;;;;;;5096345;28;20123;-77
2023/03/21 05:19:04;;;;;;;13.63;9.57;;;9.80;59.70;;;;;;5096301;28;20030;-77
2023/03/21 05:21:40;;;;;;;12.75;9.50;;;9.80;59.80;;;;;;5096078;28;20102;-80
2023/03/21 05:24:14;;;;;;;11.98;8.07;;;9.80;59.70;;;;;;5113370;28;20023;-74
2023/03/21 05:26:41;;;;;;;10.20;7.72;;;9.90;60.20;;;;;;5093382;28;20059;-77
2023/03/21 05:29:07;;;;;;;11.05;7.82;;;9.90;60.30;;;;;;5113377;28;20084;-77
2023/03/21 05:31:34;;;;;;;10.35;7.78;;;10.00;60.30;;;;;;5112745;28;20024;-79
2023/03/21 05:33:59;;;;;;;9.73;7.50;;;10.10;60.20;;;;;;5109293;28;20101;-79
2023/03/21 05:36:25;;;;;;;9.77;7.07;;;10.10;60.10;;;;;;5093052;28;20036;-80
2023/03/21 05:38:51;;;;;;;10.13;7.55;;;10.10;60.10;;;;;;5092152;28;20125;-78
2023/03/21 05:41:17;;;;;;;11.30;8.30;;;10.10;60.00;;;;;;5081061;28;20017;-77
2023/03/21 05:43:43;;;;;;;11.10;8.02;;;10.10;60.00;;;;;;5081648;28;20020;-78
2023/03/21 05:46:10;;;;;;;11.80;8.25;;;10.20;60.00;;;;;;5083550;28;20525;-78
2023/03/21 05:48:36;;;;;;;11.68;8.23;;;10.20;60.00;;;;;;5081392;28;20055;-78
2023/03/21 05:51:03;;;;;;;11.32;8.10;;;10.20;60.00;;;;;;5068848;28;20055;-78
2023/03/21 05:53:29;;;;;;;11.60;8.05;;;10.20;59.90;;;;;;5092304;28;20111;-77
2023/03/21 05:55:55;;;;;;;10.60;7.90;;;10.20;59.90;;;;;;5074478;28;20077;-78
2023/03/21 05:58:20;;;;;;;11.32;8.25;;;10.20;60.40;;;;;;5092833;28;20415;-78
2023/03/21 06:00:46;;;;;;;9.55;7.88;;;10.30;59.90;;;;;;5092724;28;20095;-79
2023/03/21 06:03:12;;;;;;;11.90;7.85;;;10.30;59.90;;;;;;5092592;28;20027;-80
2023/03/21 06:05:37;;;;;;;11.02;8.45;;;10.30;60.40;;;;;;5069046;28;20032;-79
2023/03/21 06:08:03;;;;;;;11.40;8.60;;;10.40;59.80;;;;;;5065671;28;20029;-76
2023/03/21 06:10:29;;;;;;;11.30;8.15;;;10.40;59.80;;;;;;5092739;28;20039;-78
2023/03/21 06:12:55;;;;;;;12.10;8.32;;;10.50;59.80;;;;;;5071833;28;20028;-78
2023/03/21 06:15:21;;;;;;;11.57;8.13;;;10.60;59.70;;;;;;5092881;28;20103;-76
2023/03/21 06:17:46;;;;;;;10.40;7.47;;;10.60;59.60;;;;;;5068428;28;20553;-79
2023/03/21 06:20:13;;;;;;;10.35;8.05;;;10.70;59.60;;;;;;5085423;28;20069;-80
2023/03/21 06:22:38;;;;;;;11.55;8.55;;;10.80;59.50;;;;;;5062045;28;20359;-77
2023/03/21 06:25:06;;;;;;;10.50;8.00;;;10.80;59.40;;;;;;5084282;28;20089;-71
2023/03/21 06:27:33;;;;;;;11.32;8.93;;;10.90;59.40;;;;;;5082229;28;20485;-74
2023/03/21 06:29:59;;;;;;;10.38;8.10;;;11.00;59.30;;;;;;5083293;28;20047;-71
2023/03/21 06:32:26;;;;;;;10.68;8.10;;;11.10;59.20;;;;;;5080262;28;20063;-72
2023/03/21 06:34:53;;;;;;;10.30;7.97;;;11.10;59.10;;;;;;5072826;28;20056;-72
2023/03/21 06:37:19;;;;;;;9.93;7.70;;;11.10;59.00;;;;;;5087831;28;20457;-73
2023/03/21 06:39:45;;;;;;;10.77;7.80;;;11.20;59.00;;;;;;5105902;28;20023;-72
2023/03/21 06:42:12;;;;;;;14.05;8.85;;;11.20;59.00;;;;;;5104841;28;20028;-72
2023/03/21 06:44:38;;;;;;;12.32;8.52;;;11.30;59.00;;;;;;5085224;28;20534;-74
2023/03/21 06:47:03;;;;;;;10.55;8.07;;;11.30;59.00;;;;;;5106640;28;20106;-73
2023/03/21 06:49:29;;;;;;;11.40;8.40;;;11.30;59.00;;;;;;5115849;28;20027;-76
2023/03/21 06:51:55;;;;;;;10.65;8.38;;;11.30;59.10;;;;;;5092185;28;20503;-76
2023/03/21 06:54:21;;;;;;;10.40;7.88;;;11.30;59.20;;;;;;5116601;28;20027;-77
2023/03/21 06:56:46;;;;;;;10.57;8.00;;;11.30;59.20;;;;;;5116163;28;20027;-73
2023/03/21 06:59:12;;;;;;;10.68;8.07;;;11.20;59.20;;;;;;5116654;28;20095;-74
2023/03/21 07:01:38;;;;;;;12.63;8.52;;;11.20;59.30;;;;;;5098240;28;20103;-73
2023/03/21 07:04:05;;;;;;;11.00;8.13;;;11.20;59.40;;;;;;5116408;28;20518;-74
2023/03/21 07:06:31;;;;;;;11.80;7.95;;;11.20;59.40;;;;;;5116740;28;20044;-73
2023/03/21 07:08:57;;;;;;;12.25;8.43;;;11.20;59.40;;;;;;5097127;28;20077;-71
2023/03/21 07:11:24;;;;;;;11.85;8.38;;;11.20;59.50;;;;;;5115954;28;20028;-71
2023/03/21 07:13:50;;;;;;;11.77;8.38;;;11.20;59.50;;;;;;5111422;28;20102;-74
2023/03/21 07:16:17;;;;;;;12.43;7.95;;;11.20;59.60;;;;;;5115190;28;20042;-73
2023/03/21 07:18:43;;;;;;;9.00;7.35;;;11.20;59.60;;;;;;5090472;28;20055;-74
2023/03/21 07:21:09;;;;;;;11.73;8.13;;;11.20;59.60;;;;;;5086649;28;20058;-73
2023/03/21 07:23:35;;;;;;;10.75;8.45;;;11.20;59.70;;;;;;5085972;28;20028;-73
2023/03/21 07:26:01;;;;;;;10.27;7.93;;;11.20;59.60;;;;;;5105631;28;20037;-74
2023/03/21 07:28:27;;;;;;;11.73;8.30;;;11.20;59.60;;;;;;5103184;28;20024;-75
2023/03/21 07:30:59;;;;;;;9.32;7.80;;;11.30;59.70;;;;;;5085300;28;20024;-73
2023/03/21 07:33:25;;;;;;;9.38;7.63;;;11.30;59.70;;;;;;5103116;28;20048;-71
2023/03/21 07:35:52;;;;;;;9.88;7.50;;;11.30;59.70;;;;;;5080834;28;20150;-72
2023/03/21 07:38:19;;;;;;;10.20;7.88;;;11.30;59.70;;;;;;5088749;28;20036;-73
2023/03/21 07:40:46;;;;;;;10.75;7.72;;;11.30;59.70;;;;;;5068133;28;20464;-72
2023/03/21 07:43:12;;;;;;;10.50;7.78;;;11.40;59.70;;;;;;5063873;28;20034;-77
2023/03/21 07:45:37;;;;;;;9.63;7.60;;;11.40;59.80;;;;;;5076953;28;20028;-74
2023/03/21 07:48:03;;;;;;;10.55;8.38;;;11.40;59.80;;;;;;5094147;28;20028;-73
2023/03/21 07:50:29;;;;;;;11.13;7.40;;;11.50;59.80;;;;;;5091090;28;20020;-71
2023/03/21 07:52:55;;;;;;;11.88;7.43;;;11.50;59.80;;;;;;5064406;28;20029;-71
2023/03/21 07:55:20;;;;;;;10.35;7.63;;;11.50;59.80;;;;;;5087817;28;20465;-71
2023/03/21 07:57:50;;;;;;;10.02;7.38;;;11.50;59.70;;;;;;5083469;28;20067;-74
2023/03/21 08:00:21;;;;;;;11.13;7.60;;;11.60;59.80;;;;;;5082492;28;20027;-73
2023/03/21 08:02:53;;;;;;;9.85;7.53;;;11.60;59.80;;;;;;5081784;28;20020;-82
2023/03/21 08:05:24;;;;;;;9.73;7.60;;;11.60;59.80;;;;;;5078126;28;20060;-78
2023/03/21 08:07:50;;;;;;;9.15;7.22;;;11.60;59.70;;;;;;5059016;28;20107;-90
2023/03/21 08:10:17;;;;;;;8.65;6.75;;;11.60;59.70;;;;;;5047813;28;20485;-76
2023/03/21 08:12:43;;;;;;;10.18;7.50;;;11.70;59.70;;;;;;5091990;28;20032;-82
2023/03/21 08:15:09;;;;;;;10.45;7.43;;;11.70;59.70;;;;;;5082799;28;20114;-80
2023/03/21 08:17:38;;;;;;;11.23;8.27;;;11.80;59.80;;;;;;5067007;28;20062;-81
2023/03/21 08:20:09;;;;;;;10.43;7.20;;;11.80;59.70;;;;;;5064186;28;20077;-83
2023/03/21 08:22:35;;;;;;;9.82;6.70;;;11.80;59.70;;;;;;5079644;28;20067;-84
2023/03/21 08:25:05;;;;;;;9.70;7.25;;;11.80;59.70;;;;;;5074855;28;20040;-69
2023/03/21 08:27:32;;;;;;;8.57;6.65;;;11.80;59.60;;;;;;5073301;28;20394;-71
2023/03/21 08:29:58;;;;;;;8.07;6.32;;;11.80;59.60;;;;;;5055779;28;20081;-72
2023/03/21 08:32:28;;;;;;;9.25;6.95;;;11.90;59.70;;;;;;5092180;28;20036;-78
2023/03/21 08:34:57;;;;;;;10.18;7.28;;;11.90;59.60;;;;;;5093570;28;20052;-72
2023/03/21 08:37:23;;;;;;;9.38;7.03;;;11.90;59.60;;;;;;5057386;28;20040;-73
2023/03/21 08:39:49;;;;;;;9.90;7.43;;;11.90;59.60;;;;;;5073628;28;20394;-73
2023/03/21 08:42:15;;;;;;;8.77;7.03;;;11.90;59.60;;;;;;5078249;28;20035;-74
2023/03/21 08:44:41;;;;;;;9.45;6.65;;;11.90;59.60;;;;;;5082662;28;20157;-71
2023/03/21 08:47:07;;;;;;;10.00;6.90;;;11.90;59.60;;;;;;5088245;28;20127;-72
2023/03/21 08:49:34;;;;;;;9.65;7.20;;;12.00;59.60;;;;;;5080807;28;20062;-74
2023/03/21 08:52:00;;;;;;;9.93;6.88;;;12.00;59.50;;;;;;5068951;28;20466;-71
2023/03/21 08:54:26;;;;;;;7.82;6.53;;;12.10;59.50;;;;;;5066366;28;20069;-73
2023/03/21 08:56:52;;;;;;;8.93;6.85;;;12.10;59.50;;;;;;5093190;28;20028;-71
2023/03/21 08:59:17;;;;;;;9.02;6.93;;;12.10;59.50;;;;;;5092648;28;20024;-73
2023/03/21 09:01:43;;;;;;;9.07;6.93;;;12.10;59.50;;;;;;5089845;28;20424;-74
2023/03/21 09:04:10;;;;;;;10.48;7.28;;;12.10;59.40;;;;;;5080078;28;20397;-74
2023/03/21 09:06:44;;;;;;;8.10;6.40;;;12.20;59.50;;;;;;5073014;28;20078;-71
2023/03/21 09:09:11;;;;;;;8.93;6.25;;;12.20;59.50;;;;;;5077702;28;20024;-73
2023/03/21 09:11:37;;;;;;;9.15;6.75;;;12.20;59.50;;;;;;5092598;28;20531;-72
2023/03/21 09:14:03;;;;;;;10.77;7.65;;;12.30;59.50;;;;;;5075204;28;20016;-73
2023/03/21 09:16:29;;;;;;;8.27;6.45;;;12.30;59.40;;;;;;5093394;28;20389;-71
2023/03/21 09:18:55;;;;;;;8.85;6.53;;;12.30;59.40;;;;;;5092756;28;20031;-72
2023/03/21 09:21:22;;;;;;;8.90;6.57;;;12.30;59.30;;;;;;5093317;28;20057;-72
2023/03/21 09:23:54;;;;;;;8.73;6.68;;;12.30;59.40;;;;;;5063955;28;20028;-72
2023/03/21 09:26:21;;;;;;;9.52;6.70;;;12.40;59.30;;;;;;5055812;28;20048;-71
2023/03/21 09:28:47;;;;;;;8.38;6.25;;;12.40;59.30;;;;;;5073660;28;20107;-71
2023/03/21 09:31:15;;;;;;;8.68;6.47;;;12.50;59.30;;;;;;5072170;28;20423;-71
2023/03/21 09:33:42;;;;;;;10.63;6.78;;;12.50;59.30;;;;;;5054815;28;20021;-70
2023/03/21 09:36:12;;;;;;;8.55;7.05;;;12.50;59.20;;;;;;5055334;28;20044;-71
2023/03/21 09:38:41;;;;;;;9.32;6.47;;;12.50;59.70;;;;;;5055852;28;20382;-70
2023/03/21 09:41:34;;;;;;;7.82;5.95;;;12.50;59.10;;;;;;5055592;28;20402;-71
2023/03/21 09:44:18;;;;;;;7.65;6.32;;;12.60;59.10;;;;;;5055877;28;20185;-71
2023/03/21 09:46:56;;;;;;;8.25;6.03;;;12.60;59.10;;;;;;5055288;28;20037;-70
2023/03/21 09:49:30;;;;;;;8.07;5.88;;;12.60;59.00;;;;;;5073558;28;20378;-70
2023/03/21 09:52:02;;;;;;;9.05;6.05;;;12.60;58.90;;;;;;5073685;28;20032;-70
2023/03/21 09:54:41;;;;;;;7.90;6.30;;;12.70;59.00;;;;;;5073613;28;20478;-70
2023/03/21 09:57:40;;;;;;;8.65;6.38;;;12.70;58.90;;;;;;5073470;28;20054;-70
2023/03/21 10:00:13;;;;;;;7.30;5.55;;;12.70;58.90;;;;;;5073458;28;20031;-71
2023/03/21 10:02:45;;;;;;;7.68;5.70;;;12.80;58.80;;;;;;5055667;28;20082;-70
2023/03/21 10:05:17;;;;;;;7.88;6.18;;;12.80;58.80;;;;;;5055319;28;20067;-71
2023/03/21 10:08:18;;;;;;;8.88;6.25;;;12.80;58.80;;;;;;5073172;28;20060;-72
2023/03/21 10:11:01;;;;;;;8.05;6.40;;;12.80;58.70;;;;;;5054034;28;20547;-71
2023/03/21 10:13:38;;;;;;;7.53;5.70;;;12.80;58.70;;;;;;5077123;28;20028;-71
2023/03/21 10:16:16;;;;;;;7.30;5.53;;;12.90;58.60;;;;;;5076907;28;20359;-70
2023/03/21 10:18:43;;;;;;;7.43;5.70;;;12.90;58.60;;;;;;5059366;28;20025;-71
2023/03/21 10:21:17;;;;;;;7.97;5.63;;;13.00;58.60;;;;;;5059373;28;20033;-71
2023/03/21 10:23:43;;;;;;;7.57;5.95;;;13.00;58.50;;;;;;5077222;28;20112;-71
2023/03/21 10:26:10;;;;;;;8.60;6.65;;;13.00;58.50;;;;;;5077100;28;20119;-71
2023/03/21 10:28:39;;;;;;;7.13;5.80;;;13.00;58.40;;;;;;5059172;28;20489;-71
2023/03/21 10:31:10;;;;;;;7.50;6.13;;;13.10;58.40;;;;;;5059298;28;20024;-70
2023/03/21 10:33:40;;;;;;;8.00;6.03;;;13.20;58.40;;;;;;5058943;28;20036;-70
2023/03/21 10:36:10;;;;;;;8.43;6.05;;;13.20;58.30;;;;;;5076897;28;20029;-70
2023/03/21 10:38:41;;;;;;;8.18;5.78;;;13.30;58.30;;;;;;5076350;28;20071;-71
2023/03/21 10:41:08;;;;;;;7.20;5.85;;;13.40;58.20;;;;;;5058849;28;20052;-71
2023/03/21 10:43:36;;;;;;;6.93;5.47;;;13.40;58.10;;;;;;5058442;28;20032;-70
2023/03/21 10:46:22;;;;;;;7.40;5.72;;;13.40;58.00;;;;;;5058843;28;20448;-70
2023/03/21 10:48:52;;;;;;;8.10;5.72;;;13.50;58.00;;;;;;5076510;28;20056;-71
2023/03/21 10:51:32;;;;;;;7.32;6.00;;;13.50;57.90;;;;;;5076146;28;20112;-71
2023/03/21 10:54:07;;;;;;;7.45;5.75;;;13.50;57.80;;;;;;5058269;28;20025;-71
2023/03/21 10:56:39;;;;;;;7.22;5.68;;;13.60;57.80;;;;;;5076600;28;20037;-71
2023/03/21 10:59:07;;;;;;;7.63;6.03;;;13.60;57.70;;;;;;5076262;28;20021;-69
2023/03/21 11:01:45;;;;;;;7.72;6.40;;;13.60;57.70;;;;;;5076363;28;20028;-70
2023/03/21 11:04:17;;;;;;;8.30;6.18;;;13.60;57.60;;;;;;5076425;28;20374;-70
2023/03/21 11:06:58;;;;;;;7.10;5.72;;;13.70;57.60;;;;;;5058243;28;20032;-70
2023/03/21 11:09:26;;;;;;;7.55;5.97;;;13.70;57.50;;;;;;5058485;28;20432;-70
2023/03/21 11:12:10;;;;;;;8.10;6.00;;;13.70;57.40;;;;;;5058228;28;20115;-71
2023/03/21 11:14:40;;;;;;;8.13;5.57;;;13.70;57.40;;;;;;5076597;28;20056;-71
2023/03/21 11:17:30;;;;;;;7.57;5.82;;;13.70;57.40;;;;;;5058260;28;20111;-71
2023/03/21 11:20:04;;;;;;;7.47;5.80;;;13.80;57.30;;;;;;5058091;28;20032;-71
2023/03/21 11:22:38;;;;;;;8.05;6.05;;;13.80;57.30;;;;;;5056897;28;20070;-71
2023/03/21 11:25:08;;;;;;;7.43;5.88;;;13.80;57.30;;;;;;5076012;28;20082;-71
2023/03/21 11:27:34;;;;;;;7.15;5.65;;;13.80;57.30;;;;;;5076282;28;20032;-70
2023/03/21 11:30:03;;;;;;;7.53;5.82;;;13.80;57.30;;;;;;5057791;28;20133;-71
2023/03/21 11:32:36;;;;;;;7.50;6.20;;;13.80;57.30;;;;;;5057724;28;20115;-71
2023/03/21 11:35:12;;;;;;;8.00;6.35;;;13.80;57.30;;;;;;5075795;28;20056;-70
2023/03/21 11:37:45;;;;;;;8.40;6.60;;;13.90;57.30;;;;;;5058335;28;20039;-71
2023/03/21 11:40:28;;;;;;;9.80;7.30;;;13.90;57.40;;;;;;5057974;28;20459;-70
2023/03/21 11:43:22;;;;;;;8.98;6.75;;;14.00;57.40;;;;;;5075583;28;20060;-70
2023/03/21 11:46:04;;;;;;;10.13;7.63;;;14.00;57.20;;;;;;5075797;28;20119;-71
2023/03/21 11:48:36;;;;;;;9.98;7.57;;;14.10;57.20;;;;;;5075459;28;20029;-72
2023/03/21 11:51:24;;;;;;;12.90;8.52;;;14.20;57.20;;;;;;5075317;28;20036;-71
2023/03/21 11:54:16;;;;;;;10.52;8.65;;;14.30;57.10;;;;;;5039812;28;20028;-72
2023/03/21 11:56:46;;;;;;;11.30;8.35;;;14.30;56.90;;;;;;5057457;28;20048;-70
2023/03/21 11:59:37;;;;;;;11.77;8.00;;;14.40;56.90;;;;;;5057614;28;20020;-70
2023/03/21 12:02:24;;;;;;;11.77;8.93;;;14.50;56.90;;;;;;5057074;28;20032;-71
2023/03/21 12:05:20;;;;;;;10.77;8.27;;;14.60;56.80;;;;;;5057221;28;20047;-71
2023/03/21 12:08:06;;;;;;;10.85;8.35;;;14.60;56.70;;;;;;5075274;28;20025;-71
2023/03/21 12:10:51;;;;;;;10.35;8.30;;;14.70;56.70;;;;;;5074733;28;20031;-70
2023/03/21 12:13:49;;;;;;;11.95;8.48;;;14.80;56.60;;;;;;5074841;28;20095;-71
2023/03/21 12:16:30;;;;;;;13.55;8.30;;;14.80;56.50;;;;;;5075218;28;20111;-72
2023/03/21 12:19:15;;;;;;;11.05;8.48;;;14.90;56.50;;;;;;5056887;28;20025;-71
2023/03/21 12:22:10;;;;;;;13.32;9.02;;;14.90;56.40;;;;;;5074993;28;20017;-70
2023/03/21 12:24:50;;;;;;;12.43;8.77;;;14.90;56.40;;;;;;5046021;28;20033;-71
2023/03/21 12:27:39;;;;;;;11.57;8.35;;;14.90;56.40;;;;;;5056134;28;20394;-70
2023/03/21 12:30:08;;;;;;;12.05;8.70;;;15.00;56.40;;;;;;5056891;28;20028;-70
2023/03/21 12:32:45;;;;;;;10.45;8.02;;;15.00;56.30;;;;;;5074064;28;20021;-71
2023/03/21 12:35:43;;;;;;;10.02;7.93;;;15.00;56.30;;;;;;5056404;28;20063;-71
2023/03/21 12:38:40;;;;;;;10.30;7.70;;;15.00;56.30;;;;;;5074797;28;20036;-70
2023/03/21 12:41:26;;;;;;;9.88;7.53;;;15.00;56.20;;;;;;5074579;28;20020;-70
2023/03/21 12:43:51;;;;;;;9.60;7.40;;;15.00;56.20;;;;;;5074331;28;20107;-70
2023/03/21 12:46:55;;;;;;;11.52;8.43;;;15.00;56.30;;;;;;5074675;28;20120;-71
2023/03/21 12:49:29;;;;;;;9.63;7.68;;;15.00;56.30;;;;;;5034992;28;20386;-71
2023/03/21 12:52:01;;;;;;;9.90;7.78;;;15.00;56.30;;;;;;5074333;28;20060;-70
2023/03/21 12:54:45;;;;;;;9.23;7.53;;;15.00;56.20;;;;;;5074371;28;20425;-70
2023/03/21 12:57:22;;;;;;;10.88;7.82;;;15.10;56.20;;;;;;5056659;28;20024;-70
2023/03/21 12:59:58;;;;;;;9.90;7.40;;;15.20;56.20;;;;;;5073988;28;20033;-70
2023/03/21 13:02:40;;;;;;;10.82;7.97;;;15.20;56.20;;;;;;5074012;28;20074;-70
2023/03/21 13:05:17;;;;;;;10.85;7.78;;;15.30;56.20;;;;;;5056049;28;20043;-70
2023/03/21 13:07:49;;;;;;;11.40;8.02;;;15.30;56.10;;;;;;5055883;28;20031;-70